createdAt,value
2023-05-21T00:01:57.593Z,13.78
2023-05-21T00:03:58.064Z,13.75
2023-05-21T00:05:57.597Z,13.8
2023-05-21T00:07:57.503Z,13.76
2023-05-21T00:11:22.328Z,13.48
2023-05-21T00:13:22.409Z,13.49
2023-05-21T00:15:22.333Z,13.6
2023-05-21T00:17:22.315Z,13.59
2023-05-21T00:19:22.413Z,13.63
2023-05-21T00:21:22.332Z,13.61
2023-05-21T00:23:22.321Z,13.54
2023-05-21T00:25:42.048Z,13.56
2023-05-21T00:27:42.042Z,13.46
2023-05-21T00:29:44.112Z,13.45
2023-05-21T00:31:42.123Z,13.41
2023-05-21T00:33:42.043Z,13.33
2023-05-21T00:35:42.056Z,13.33
2023-05-21T00:37:42.046Z,13.36
2023-05-21T00:39:42.006Z,13.29
2023-05-21T00:41:04.309Z,13.32
2023-05-21T00:43:04.345Z,13.31
2023-05-21T00:45:04.289Z,13.38
2023-05-21T00:47:04.277Z,13.38
2023-05-21T00:49:04.331Z,13.23
2023-05-21T00:51:04.283Z,13.22
2023-05-21T00:53:04.338Z,13.21
2023-05-21T00:56:20.968Z,13.06
2023-05-21T00:58:20.921Z,13.19
2023-05-21T01:00:20.910Z,13.24
2023-05-21T01:02:21.029Z,13.18
2023-05-21T01:04:20.922Z,13.13
2023-05-21T01:06:20.902Z,13.05
2023-05-21T01:08:20.975Z,12.94
2023-05-21T01:11:42.811Z,12.99
2023-05-21T01:13:42.804Z,12.75
2023-05-21T01:15:42.761Z,12.78
2023-05-21T01:17:42.816Z,12.84
2023-05-21T01:19:42.828Z,12.79
2023-05-21T01:21:42.811Z,12.73
2023-05-21T01:23:42.795Z,12.71
2023-05-21T01:26:42.306Z,12.69
2023-05-21T01:28:42.317Z,12.78
2023-05-21T01:30:42.244Z,12.78
2023-05-21T01:32:42.288Z,12.9
2023-05-21T01:34:42.231Z,12.92
2023-05-21T01:36:42.226Z,12.81
2023-05-21T01:38:42.256Z,12.82
2023-05-21T01:41:31.750Z,12.87
2023-05-21T01:43:31.735Z,12.79
2023-05-21T01:45:31.725Z,12.74
2023-05-21T01:47:31.764Z,12.67
2023-05-21T01:49:31.732Z,12.76
2023-05-21T01:51:31.737Z,12.64
2023-05-21T01:53:31.718Z,12.67
2023-05-21T01:55:31.726Z,12.69
2023-05-21T01:57:29.756Z,12.7
2023-05-21T01:59:29.710Z,12.74
2023-05-21T02:01:29.750Z,12.74
2023-05-21T02:03:29.805Z,12.66
2023-05-21T02:05:29.729Z,12.68
2023-05-21T02:07:29.731Z,12.6
2023-05-21T02:09:29.732Z,12.56
2023-05-21T02:12:47.434Z,12.61
2023-05-21T02:14:47.402Z,12.59
2023-05-21T02:16:47.563Z,12.47
2023-05-21T02:18:47.380Z,12.43
2023-05-21T02:20:47.392Z,12.41
2023-05-21T02:22:47.379Z,12.51
2023-05-21T02:24:47.415Z,12.53
2023-05-21T02:27:05.701Z,12.56
2023-05-21T02:29:05.774Z,12.56
2023-05-21T02:31:05.744Z,12.5
2023-05-21T02:33:05.741Z,12.42
2023-05-21T02:35:05.758Z,12.41
2023-05-21T02:37:05.719Z,12.37
2023-05-21T02:39:05.687Z,12.33
2023-05-21T02:41:05.710Z,12.4
2023-05-21T02:42:57.257Z,12.45
2023-05-21T02:44:57.266Z,12.41
2023-05-21T02:46:57.240Z,12.16
2023-05-21T02:48:57.213Z,12.22
2023-05-21T02:50:57.230Z,12.29
2023-05-21T02:52:57.193Z,12.38
2023-05-21T02:54:57.321Z,12.41
2023-05-21T02:57:30.446Z,12.42
2023-05-21T02:59:30.256Z,12.46
2023-05-21T03:01:30.375Z,12.38
2023-05-21T03:03:30.560Z,12.47
2023-05-21T03:05:30.336Z,12.52
2023-05-21T03:07:30.289Z,12.46
2023-05-21T03:09:30.319Z,12.52
2023-05-21T03:13:11.862Z,12.61
2023-05-21T03:15:11.810Z,12.67
2023-05-21T03:17:11.826Z,12.73
2023-05-21T03:19:11.828Z,12.73
2023-05-21T03:21:11.851Z,12.8
2023-05-21T03:23:13.051Z,12.85
2023-05-21T03:25:11.796Z,12.98
2023-05-21T03:28:37.504Z,13.04
2023-05-21T03:30:37.497Z,13.03
2023-05-21T03:32:37.562Z,12.65
2023-05-21T03:34:37.523Z,13.12
2023-05-21T03:36:37.550Z,13.96
2023-05-21T03:38:37.495Z,15.77
2023-05-21T03:40:37.491Z,17.43
2023-05-21T03:43:44.849Z,19.22
2023-05-21T03:45:45.029Z,20.12
2023-05-21T03:47:44.926Z,20.51
2023-05-21T03:49:44.867Z,21.45
2023-05-21T03:51:44.857Z,22.25
2023-05-21T03:53:44.909Z,22.9
2023-05-21T03:55:44.829Z,23.69
2023-05-21T03:58:22.957Z,24.54
2023-05-21T04:00:22.972Z,25.21
2023-05-21T04:02:23.021Z,25.92
2023-05-21T04:04:23.123Z,26.43
2023-05-21T04:06:22.981Z,26.65
2023-05-21T04:08:22.973Z,26.85
2023-05-21T04:10:22.992Z,26.99
2023-05-21T04:13:52.935Z,27.78
2023-05-21T04:15:52.953Z,27.85
2023-05-21T04:17:52.997Z,27.26
2023-05-21T04:19:52.947Z,25.61
2023-05-21T04:21:53.065Z,24.35
2023-05-21T04:23:52.895Z,22.52
2023-05-21T04:25:52.912Z,21.44
2023-05-21T04:28:52.330Z,20.43
2023-05-21T04:30:52.322Z,20.11
2023-05-21T04:32:52.393Z,19.8
2023-05-21T04:34:52.316Z,19.65
2023-05-21T04:36:52.351Z,19.54
2023-05-21T04:38:52.313Z,19.48
2023-05-21T04:40:52.326Z,19.37
2023-05-21T04:43:53.996Z,19.36
2023-05-21T04:45:53.982Z,19.29
2023-05-21T04:47:53.972Z,19.27
2023-05-21T04:49:53.986Z,19.43
2023-05-21T04:51:53.991Z,21.26
2023-05-21T04:53:54.038Z,20.84
2023-05-21T04:55:53.971Z,19.96
2023-05-21T04:58:48.466Z,19.41
2023-05-21T05:00:48.433Z,19.06
2023-05-21T05:02:48.480Z,18.99
2023-05-21T05:04:48.476Z,18.86
2023-05-21T05:06:48.490Z,18.92
2023-05-21T05:08:48.426Z,18.98
2023-05-21T05:10:48.459Z,18.59
2023-05-21T05:12:48.438Z,18.43
2023-05-21T05:14:23.937Z,18.43
2023-05-21T05:16:23.951Z,18.65
2023-05-21T05:18:23.959Z,18.97
2023-05-21T05:20:23.930Z,19.19
2023-05-21T05:22:23.945Z,19.92
2023-05-21T05:24:23.962Z,20.19
2023-05-21T05:26:23.977Z,19.78
2023-05-21T05:29:31.658Z,19.09
2023-05-21T05:31:31.721Z,18.68
2023-05-21T05:33:31.650Z,18.6
2023-05-21T05:35:31.687Z,17.51
2023-05-21T05:37:31.664Z,17
2023-05-21T05:39:31.639Z,18.33
2023-05-21T05:41:31.702Z,19.72
2023-05-21T05:44:36.226Z,20.48
2023-05-21T05:46:36.295Z,21.08
2023-05-21T05:48:36.265Z,21.23
2023-05-21T05:50:36.213Z,21.46
2023-05-21T05:52:36.292Z,21.69
2023-05-21T05:54:36.211Z,20.6
2023-05-21T05:56:36.282Z,20.1
2023-05-21T05:59:28.843Z,20.86
2023-05-21T06:01:28.881Z,21.51
2023-05-21T06:03:29.098Z,22.01
2023-05-21T06:05:28.922Z,21.57
2023-05-21T06:07:28.866Z,21.02
2023-05-21T06:09:28.855Z,20.87
2023-05-21T06:11:28.863Z,20.76
2023-05-21T06:13:29.169Z,20.63
2023-05-21T06:14:40.374Z,20.61
2023-05-21T06:16:40.435Z,20.68
2023-05-21T06:18:40.428Z,20.51
2023-05-21T06:20:40.429Z,20.54
2023-05-21T06:22:40.451Z,20.54
2023-05-21T06:24:40.362Z,20.54
2023-05-21T06:26:40.398Z,20.5
2023-05-21T06:28:40.412Z,20.51
2023-05-21T06:29:58.920Z,20.46
2023-05-21T06:31:59.169Z,20.44
2023-05-21T06:33:59.071Z,20.55
2023-05-21T06:35:58.833Z,20.53
2023-05-21T06:37:58.887Z,20.38
2023-05-21T06:39:59.152Z,20.05
2023-05-21T06:41:58.871Z,20.32
2023-05-21T06:45:48.080Z,20.4
2023-05-21T06:47:47.753Z,20.52
2023-05-21T06:49:47.734Z,20.62
2023-05-21T06:51:47.723Z,20.57
2023-05-21T06:53:47.783Z,20.87
2023-05-21T06:55:47.698Z,21.02
2023-05-21T06:57:47.759Z,21.08
2023-05-21T07:00:04.336Z,21.05
2023-05-21T07:02:04.861Z,21
2023-05-21T07:04:04.372Z,20.97
2023-05-21T07:06:04.313Z,21.22
2023-05-21T07:08:04.240Z,21.25
2023-05-21T07:10:04.347Z,21.15
2023-05-21T07:12:04.319Z,21.29
2023-05-21T07:14:04.250Z,21.24
2023-05-21T07:15:45.815Z,20.64
2023-05-21T07:17:45.653Z,21.04
2023-05-21T07:19:45.913Z,21.21
2023-05-21T07:21:45.548Z,20.76
2023-05-21T07:23:45.489Z,20.74
2023-05-21T07:25:45.535Z,20.94
2023-05-21T07:27:45.557Z,21.26
2023-05-21T07:30:58.860Z,21.37
2023-05-21T07:32:58.844Z,21.03
2023-05-21T07:34:58.738Z,21.49
2023-05-21T07:36:58.806Z,21.76
2023-05-21T07:38:58.736Z,21.58
2023-05-21T07:40:58.733Z,21.77
2023-05-21T07:42:58.830Z,20.51
2023-05-21T07:46:16.489Z,21.25
2023-05-21T07:48:16.490Z,21.26
2023-05-21T07:50:16.405Z,21.02
2023-05-21T07:52:16.404Z,20.95
2023-05-21T07:54:16.562Z,20.71
2023-05-21T07:56:16.430Z,20.54
2023-05-21T07:58:16.381Z,20.1
2023-05-21T08:01:02.675Z,20.01
2023-05-21T08:03:03.050Z,19.64
2023-05-21T08:05:02.916Z,19.72
2023-05-21T08:07:03.195Z,19.68
2023-05-21T08:09:02.946Z,19.28
2023-05-21T08:11:03.100Z,19.72
2023-05-21T08:13:02.869Z,19
2023-05-21T08:16:22.151Z,18.62
2023-05-21T08:18:22.193Z,18.37
2023-05-21T08:20:22.137Z,18.7
2023-05-21T08:22:22.199Z,18.15
2023-05-21T08:24:22.063Z,18.2
2023-05-21T08:26:22.083Z,18.6
2023-05-21T08:28:22.055Z,18.23
2023-05-21T08:31:04.482Z,18.41
2023-05-21T08:33:04.515Z,17.74
2023-05-21T08:35:04.501Z,17.83
2023-05-21T08:37:04.493Z,17.97
2023-05-21T08:39:04.452Z,17.39
2023-05-21T08:41:04.485Z,18.15
2023-05-21T08:43:04.473Z,17.9
2023-05-21T08:45:04.499Z,18.33
2023-05-21T08:46:58.335Z,17.78
2023-05-21T08:48:58.332Z,17.66
2023-05-21T08:50:58.403Z,18.05
2023-05-21T08:52:58.400Z,18.06
2023-05-21T08:54:58.383Z,17.27
2023-05-21T08:56:58.330Z,17.26
2023-05-21T08:58:58.381Z,17.69
2023-05-21T09:02:03.779Z,17.4
2023-05-21T09:04:12.591Z,17.92
2023-05-21T09:06:03.692Z,18.24
2023-05-21T09:08:03.759Z,18.58
2023-05-21T09:10:03.771Z,18.35
2023-05-21T09:12:03.696Z,18.67
2023-05-21T09:14:03.700Z,18.3
2023-05-21T09:16:33.949Z,18.65
2023-05-21T09:18:33.965Z,19.17
2023-05-21T09:20:34.004Z,18.82
2023-05-21T09:22:33.975Z,19.27
2023-05-21T09:24:36.192Z,19.05
2023-05-21T09:26:33.968Z,18.86
2023-05-21T09:28:33.997Z,18.87
2023-05-21T09:30:35.856Z,19.1
2023-05-21T09:31:59.921Z,19.24
2023-05-21T09:33:59.863Z,18.45
2023-05-21T09:35:59.752Z,18.58
2023-05-21T09:37:59.776Z,18.72
2023-05-21T09:39:59.833Z,18.52
2023-05-21T09:41:59.867Z,18.92
2023-05-21T09:43:59.733Z,19.04
2023-05-21T09:47:28.066Z,19.03
2023-05-21T09:49:28.298Z,19.59
2023-05-21T09:51:28.098Z,19.41
2023-05-21T09:53:28.057Z,19.55
2023-05-21T09:55:28.112Z,18.91
2023-05-21T09:57:28.089Z,18.6
2023-05-21T09:59:28.069Z,18.41
2023-05-21T10:02:35.952Z,18.76
2023-05-21T10:04:35.951Z,18.49
2023-05-21T10:06:35.905Z,19.01
2023-05-21T10:08:35.893Z,19.1
2023-05-21T10:10:36.072Z,18.87
2023-05-21T10:12:35.886Z,18.39
2023-05-21T10:14:35.989Z,18.76
2023-05-21T10:17:11.676Z,19
2023-05-21T10:19:11.680Z,19.1
2023-05-21T10:21:11.680Z,19.47
2023-05-21T10:23:11.670Z,19.47
2023-05-21T10:25:11.709Z,20.14
2023-05-21T10:27:11.709Z,20.34
2023-05-21T10:29:11.686Z,20.9
2023-05-21T10:31:11.652Z,21.27
2023-05-21T10:32:31.900Z,21.17
2023-05-21T10:34:31.751Z,20.02
2023-05-21T10:36:31.777Z,19.93
2023-05-21T10:38:31.732Z,19.85
2023-05-21T10:40:31.713Z,19.25
2023-05-21T10:42:31.794Z,19.39
2023-05-21T10:44:31.735Z,19.98
2023-05-21T10:48:08.047Z,20.63
2023-05-21T10:50:08.038Z,20.81
2023-05-21T10:52:08.040Z,20.96
2023-05-21T10:54:08.049Z,20.44
2023-05-21T10:56:08.016Z,21.21
2023-05-21T10:58:08.078Z,21.41
2023-05-21T11:00:08.035Z,21.44
2023-05-21T11:02:49.935Z,21.1
2023-05-21T11:04:49.909Z,21.28
2023-05-21T11:06:49.903Z,20.19
2023-05-21T11:08:49.941Z,20.63
2023-05-21T11:10:49.909Z,20.91
2023-05-21T11:12:49.916Z,20.64
2023-05-21T11:14:49.990Z,20.72
2023-05-21T11:18:22.986Z,20.58
2023-05-21T11:20:23.296Z,20.94
2023-05-21T11:22:23.013Z,20.81
2023-05-21T11:24:23.045Z,20.89
2023-05-21T11:26:22.970Z,21.2
2023-05-21T11:28:23.019Z,20.93
2023-05-21T11:30:23.017Z,20.05
2023-05-21T11:33:13.144Z,21.22
2023-05-21T11:35:13.124Z,21.22
2023-05-21T11:37:13.135Z,20.88
2023-05-21T11:39:13.120Z,21.02
2023-05-21T11:41:13.159Z,20.98
2023-05-21T11:43:13.114Z,21.34
2023-05-21T11:45:13.187Z,20.29
2023-05-21T11:48:46.323Z,21.07
2023-05-21T11:50:46.352Z,20.25
2023-05-21T11:52:46.314Z,20.29
2023-05-21T11:54:46.571Z,20.68
2023-05-21T11:56:46.296Z,20.78
2023-05-21T11:58:46.356Z,20.91
2023-05-21T12:00:46.299Z,21.22
2023-05-21T12:03:45.291Z,21.35
2023-05-21T12:05:45.032Z,22.09
2023-05-21T12:07:45.013Z,22.08
2023-05-21T12:09:45.056Z,21.45
2023-05-21T12:11:45.098Z,21.87
2023-05-21T12:13:45.022Z,22.09
2023-05-21T12:15:45.000Z,21.19
2023-05-21T12:19:29.100Z,21.35
2023-05-21T12:21:29.083Z,22.06
2023-05-21T12:23:28.996Z,21.9
2023-05-21T12:25:29.008Z,21.33
2023-05-21T12:27:29.097Z,22.25
2023-05-21T12:29:29.215Z,22.35
2023-05-21T12:31:29.252Z,21.71
2023-05-21T12:34:14.735Z,20.69
2023-05-21T12:36:14.633Z,20.58
2023-05-21T12:38:14.620Z,21.06
2023-05-21T12:40:14.652Z,20.49
2023-05-21T12:42:14.583Z,21.09
2023-05-21T12:44:14.630Z,21.77
2023-05-21T12:46:14.624Z,21.85
2023-05-21T12:49:45.850Z,21.35
2023-05-21T12:51:45.791Z,21.14
2023-05-21T12:53:45.909Z,21.38
2023-05-21T12:55:45.861Z,22.05
2023-05-21T12:57:45.821Z,21.42
2023-05-21T12:59:45.845Z,21.43
2023-05-21T13:01:45.788Z,22.02
2023-05-21T13:04:46.220Z,21.35
2023-05-21T13:06:46.221Z,21.27
2023-05-21T13:08:46.244Z,21.78
2023-05-21T13:10:46.215Z,21.17
2023-05-21T13:12:46.237Z,20.81
2023-05-21T13:14:46.261Z,20.88
2023-05-21T13:16:46.195Z,21.69
2023-05-21T13:20:02.543Z,21.02
2023-05-21T13:22:02.477Z,21.19
2023-05-21T13:24:02.511Z,21.35
2023-05-21T13:26:02.559Z,20.86
2023-05-21T13:28:02.456Z,21.39
2023-05-21T13:30:02.489Z,21.4
2023-05-21T13:32:02.464Z,20.97
2023-05-21T13:34:55.500Z,20.81
2023-05-21T13:36:55.522Z,20.82
2023-05-21T13:38:55.553Z,21.14
2023-05-21T13:40:55.463Z,20.75
2023-05-21T13:42:55.536Z,21.01
2023-05-21T13:44:55.509Z,21.27
2023-05-21T13:46:55.493Z,21.8
2023-05-21T13:49:43.965Z,21.39
2023-05-21T13:51:43.924Z,21.33
2023-05-21T13:53:43.965Z,21.05
2023-05-21T13:55:43.954Z,21.12
2023-05-21T13:57:43.992Z,21.03
2023-05-21T13:59:43.953Z,21.31
2023-05-21T14:01:44.018Z,20.96
2023-05-21T14:05:27.554Z,20.87
2023-05-21T14:07:27.582Z,21.15
2023-05-21T14:09:27.539Z,21.07
2023-05-21T14:11:27.532Z,20.83
2023-05-21T14:13:27.586Z,20.85
2023-05-21T14:15:27.560Z,20.83
2023-05-21T14:17:27.578Z,21.8
2023-05-21T14:19:55.758Z,21.7
2023-05-21T14:21:55.680Z,21.13
2023-05-21T14:23:55.751Z,21.02
2023-05-21T14:25:55.719Z,20.8
2023-05-21T14:27:55.669Z,20.88
2023-05-21T14:29:55.717Z,20.36
2023-05-21T14:31:55.780Z,20.76
2023-05-21T14:33:55.701Z,20.91
2023-05-21T14:35:23.876Z,20.92
2023-05-21T14:37:23.812Z,20.82
2023-05-21T14:39:23.952Z,21.3
2023-05-21T14:41:23.947Z,20.98
2023-05-21T14:43:23.781Z,21.01
2023-05-21T14:45:23.831Z,21.08
2023-05-21T14:47:23.852Z,20.72
2023-05-21T14:50:12.775Z,21.35
2023-05-21T14:52:12.720Z,20.44
2023-05-21T14:54:12.795Z,21.02
2023-05-21T14:56:12.766Z,21.1
2023-05-21T14:58:12.725Z,20.83
2023-05-21T15:00:12.718Z,20.35
2023-05-21T15:02:12.796Z,20.16
2023-05-21T15:04:12.794Z,20.1
2023-05-21T15:06:07.198Z,19.64
2023-05-21T15:08:07.193Z,20.56
2023-05-21T15:10:07.169Z,19.88
2023-05-21T15:12:07.153Z,19.91
2023-05-21T15:14:07.200Z,20.23
2023-05-21T15:16:07.184Z,20.21
2023-05-21T15:18:07.228Z,20.32
2023-05-21T15:21:16.503Z,20.76
2023-05-21T15:23:17.908Z,20.74
2023-05-21T15:25:16.653Z,20.29
2023-05-21T15:27:16.199Z,20.68
2023-05-21T15:29:16.205Z,20.76
2023-05-21T15:31:16.191Z,19.95
2023-05-21T15:33:16.185Z,20.34
2023-05-21T15:36:06.003Z,20.55
2023-05-21T15:38:06.144Z,20.52
2023-05-21T15:40:06.055Z,21.13
2023-05-21T15:42:05.984Z,20.61
2023-05-21T15:44:06.003Z,20.28
2023-05-21T15:46:05.996Z,21.11
2023-05-21T15:48:06.040Z,20.76
2023-05-21T15:51:37.958Z,20.53
2023-05-21T15:53:38.079Z,20.42
2023-05-21T15:55:38.466Z,19.96
2023-05-21T15:57:38.172Z,20.4
2023-05-21T15:59:38.054Z,20.11
2023-05-21T16:01:38.059Z,20.6
2023-05-21T16:03:37.996Z,20.71
2023-05-21T16:06:55.497Z,19.59
2023-05-21T16:08:55.463Z,19.62
2023-05-21T16:10:55.470Z,19.95
2023-05-21T16:12:55.431Z,19.63
2023-05-21T16:14:55.527Z,19.68
2023-05-21T16:16:55.542Z,19.38
2023-05-21T16:18:55.486Z,19.19
2023-05-21T16:21:57.627Z,19.17
2023-05-21T16:23:57.177Z,19.15
2023-05-21T16:25:57.192Z,19.08
2023-05-21T16:27:57.165Z,18.81
2023-05-21T16:29:57.169Z,18.77
2023-05-21T16:31:57.281Z,18.39
2023-05-21T16:33:57.158Z,18.66
2023-05-21T16:36:32.546Z,18.39
2023-05-21T16:38:32.588Z,18.54
2023-05-21T16:40:32.530Z,18.34
2023-05-21T16:42:32.650Z,18.43
2023-05-21T16:44:32.722Z,18.14
2023-05-21T16:46:32.554Z,18.76
2023-05-21T16:48:32.506Z,18.95
2023-05-21T16:52:25.385Z,18.93
2023-05-21T16:54:25.405Z,18.75
2023-05-21T16:56:25.363Z,17.96
2023-05-21T16:58:25.407Z,18.18
2023-05-21T17:00:25.376Z,18.81
2023-05-21T17:02:25.412Z,18.06
2023-05-21T17:04:25.739Z,18.6
2023-05-21T17:07:14.333Z,17.75
2023-05-21T17:09:14.287Z,17.57
2023-05-21T17:11:14.265Z,17.7
2023-05-21T17:13:21.983Z,17.6
2023-05-21T17:15:14.339Z,17.81
2023-05-21T17:17:14.262Z,18.13
2023-05-21T17:19:14.327Z,18.06
2023-05-21T17:22:41.693Z,18.12
2023-05-21T17:24:41.896Z,17.65
2023-05-21T17:26:41.690Z,17.82
2023-05-21T17:28:41.709Z,17.86
2023-05-21T17:30:41.681Z,17.83
2023-05-21T17:32:41.674Z,17.9
2023-05-21T17:34:41.703Z,18.02
2023-05-21T17:37:34.117Z,17.92
2023-05-21T17:39:34.073Z,18.25
2023-05-21T17:41:34.070Z,17.86
2023-05-21T17:43:34.093Z,18.06
2023-05-21T17:45:34.052Z,18.36
2023-05-21T17:47:34.182Z,18.41
2023-05-21T17:49:34.083Z,18.31
2023-05-21T17:52:36.904Z,18.31
2023-05-21T17:54:36.896Z,18.32
2023-05-21T17:56:36.854Z,18.06
2023-05-21T17:58:36.867Z,18.21
2023-05-21T18:00:36.878Z,18.37
2023-05-21T18:02:36.957Z,18.42
2023-05-21T18:04:37.094Z,18.33
2023-05-21T18:08:11.562Z,18.12
2023-05-21T18:10:11.493Z,18.24
2023-05-21T18:12:11.385Z,18.29
2023-05-21T18:14:11.406Z,18.09
2023-05-21T18:16:11.537Z,18.05
2023-05-21T18:18:11.468Z,18.12
2023-05-21T18:20:11.499Z,18.12
2023-05-21T18:23:10.773Z,18.13
2023-05-21T18:25:10.849Z,18.23
2023-05-21T18:27:10.861Z,18.19
2023-05-21T18:29:10.825Z,18.19
2023-05-21T18:31:10.783Z,18.04
2023-05-21T18:33:10.823Z,17.91
2023-05-21T18:35:12.494Z,18.02
2023-05-21T18:38:33.388Z,17.98
2023-05-21T18:40:33.342Z,18.03
2023-05-21T18:42:33.307Z,17.94
2023-05-21T18:44:33.366Z,17.91
2023-05-21T18:46:33.325Z,17.89
2023-05-21T18:48:33.247Z,17.84
2023-05-21T18:50:33.290Z,17.72
2023-05-21T18:53:35.811Z,17.85
2023-05-21T18:55:35.995Z,17.87
2023-05-21T18:57:35.836Z,17.79
2023-05-21T18:59:35.695Z,17.49
2023-05-21T19:01:35.820Z,17.46
2023-05-21T19:03:36.003Z,17.29
2023-05-21T19:05:35.724Z,17.15
2023-05-21T19:08:16.049Z,17.27
2023-05-21T19:10:15.925Z,17.48
2023-05-21T19:12:15.760Z,17.61
2023-05-21T19:14:15.757Z,17.61
2023-05-21T19:16:15.757Z,17.62
2023-05-21T19:18:15.711Z,17.63
2023-05-21T19:20:15.728Z,17.62
2023-05-21T19:23:48.718Z,17.56
2023-05-21T19:25:36.640Z,17.29
2023-05-21T19:27:36.561Z,17.35
2023-05-21T19:29:36.524Z,17.5
2023-05-21T19:31:36.663Z,17.42
2023-05-21T19:33:36.567Z,17.48
2023-05-21T19:35:36.492Z,17.49
2023-05-21T19:38:42.522Z,17.43
2023-05-21T19:40:42.031Z,17.34
2023-05-21T19:42:41.927Z,17.29
2023-05-21T19:44:42.045Z,17.09
2023-05-21T19:46:41.965Z,17.04
2023-05-21T19:48:41.901Z,17.2
2023-05-21T19:50:42.158Z,17.23
2023-05-21T19:53:34.514Z,17.16
2023-05-21T19:55:34.538Z,17.19
2023-05-21T19:57:34.515Z,17.28
2023-05-21T19:59:34.520Z,17.39
2023-05-21T20:01:34.691Z,17.37
2023-05-21T20:03:34.653Z,17.39
2023-05-21T20:05:34.497Z,17.37
2023-05-21T20:07:34.575Z,17.31
2023-05-21T20:08:54.176Z,17.43
2023-05-21T20:10:54.154Z,17.38
2023-05-21T20:12:54.277Z,17.36
2023-05-21T20:14:53.955Z,17.27
2023-05-21T20:16:54.216Z,17.27
2023-05-21T20:18:54.141Z,17.24
2023-05-21T20:20:54.015Z,17.25
2023-05-21T20:24:20.157Z,17.13
2023-05-21T20:26:20.191Z,17.08
2023-05-21T20:28:21.754Z,17.07
2023-05-21T20:30:20.457Z,17.01
2023-05-21T20:32:20.308Z,17.04
2023-05-21T20:34:20.127Z,17.06
2023-05-21T20:36:20.096Z,17
2023-05-21T20:39:09.868Z,16.97
2023-05-21T20:41:09.729Z,16.93
2023-05-21T20:43:09.669Z,16.88
2023-05-21T20:45:10.052Z,16.75
2023-05-21T20:47:09.655Z,16.65
2023-05-21T20:49:09.661Z,16.47
2023-05-21T20:51:09.691Z,16.31
2023-05-21T20:53:09.631Z,16.4
2023-05-21T20:54:44.253Z,16.35
2023-05-21T20:56:44.257Z,16.3
2023-05-21T20:58:44.289Z,16.38
2023-05-21T21:00:44.394Z,16.33
2023-05-21T21:02:44.462Z,16.2
2023-05-21T21:04:44.273Z,16.2
2023-05-21T21:06:44.253Z,16.14
2023-05-21T21:09:53.378Z,16.12
2023-05-21T21:11:53.420Z,15.71
2023-05-21T21:13:53.395Z,15.78
2023-05-21T21:15:53.429Z,15.82
2023-05-21T21:17:53.422Z,15.86
2023-05-21T21:19:53.443Z,15.84
2023-05-21T21:21:53.368Z,15.8
2023-05-21T21:25:14.002Z,15.85
2023-05-21T21:27:13.949Z,15.69
2023-05-21T21:29:14.026Z,15.6
2023-05-21T21:31:13.971Z,15.68
2023-05-21T21:33:14.033Z,15.7
2023-05-21T21:35:13.960Z,15.65
2023-05-21T21:37:13.999Z,15.63
2023-05-21T21:39:43.618Z,15.58
2023-05-21T21:41:43.658Z,15.56
2023-05-21T21:43:43.617Z,15.63
2023-05-21T21:45:43.648Z,15.61
2023-05-21T21:47:43.670Z,15.36
2023-05-21T21:49:43.617Z,15.48
2023-05-21T21:51:43.620Z,15.51
2023-05-21T21:53:43.611Z,15.48
2023-05-21T21:55:18.294Z,15.52
2023-05-21T21:57:18.293Z,15.48
2023-05-21T21:59:18.336Z,15.39
2023-05-21T22:01:18.327Z,15.44
2023-05-21T22:03:18.326Z,15.43
2023-05-21T22:05:18.355Z,15.4
2023-05-21T22:07:18.356Z,15.39
2023-05-21T22:10:16.290Z,15.35
2023-05-21T22:12:16.215Z,15.42
2023-05-21T22:14:16.224Z,15.33
2023-05-21T22:16:16.283Z,15.35
2023-05-21T22:18:20.358Z,15.33
2023-05-21T22:20:16.228Z,15.22
2023-05-21T22:22:16.291Z,15.23
2023-05-21T22:25:54.316Z,15.14
2023-05-21T22:27:54.331Z,15.04
2023-05-21T22:29:54.306Z,14.94
2023-05-21T22:31:54.355Z,14.89
2023-05-21T22:33:54.311Z,14.98
2023-05-21T22:35:54.624Z,15.01
2023-05-21T22:37:54.314Z,14.89
2023-05-21T22:41:22.096Z,14.73
2023-05-21T22:43:22.065Z,14.64
2023-05-21T22:45:22.122Z,14.63
2023-05-21T22:47:22.048Z,14.68
2023-05-21T22:49:22.039Z,14.49
2023-05-21T22:51:22.072Z,14.52
2023-05-21T22:53:22.066Z,14.57
2023-05-21T22:56:11.900Z,14.52
2023-05-21T22:58:11.941Z,14.44
2023-05-21T23:00:11.930Z,14.31
2023-05-21T23:02:12.204Z,14.21
2023-05-21T23:04:12.165Z,14.26
2023-05-21T23:06:11.908Z,14.26
2023-05-21T23:08:11.906Z,14.28
2023-05-21T23:10:56.501Z,14.28
2023-05-21T23:12:56.506Z,14.21
2023-05-21T23:14:56.476Z,14.23
2023-05-21T23:16:56.471Z,14.24
2023-05-21T23:18:56.506Z,14.3
2023-05-21T23:20:56.476Z,14.3
2023-05-21T23:22:56.455Z,14.2
2023-05-21T23:26:17.242Z,14.21
2023-05-21T23:28:17.285Z,14.17
2023-05-21T23:30:17.201Z,14.19
2023-05-21T23:32:17.210Z,14.14
2023-05-21T23:34:17.264Z,14.01
2023-05-21T23:36:17.233Z,14.02
2023-05-21T23:38:17.240Z,14.07
2023-05-21T23:42:02.100Z,14.02
2023-05-21T23:44:02.112Z,14.01
2023-05-21T23:46:02.125Z,13.99
2023-05-21T23:48:02.077Z,13.95
2023-05-21T23:50:02.081Z,13.93
2023-05-21T23:52:02.041Z,13.92
2023-05-21T23:54:02.043Z,13.81
2023-05-21T23:56:51.892Z,13.92
2023-05-21T23:58:51.884Z,13.9
